sensor_id;sensor_type;location;lat;lon;timestamp;pressure;altitude;pressure_sealevel;temperature;humidity
65905;BME280;56275;49.802;24.020;2022-10-28T00:01:58;98596.28;;;21.79;52.53
65905;BME280;56275;49.802;24.020;2022-10-28T00:04:47;98590.97;;;21.79;52.64
65905;BME280;56275;49.802;24.020;2022-10-28T00:07:32;98594.50;;;21.80;52.41
65905;BME280;56275;49.802;24.020;2022-10-28T00:10:25;98595.41;;;21.79;52.36
65905;BME280;56275;49.802;24.020;2022-10-28T00:13:11;98601.56;;;21.78;52.42
65905;BME280;56275;49.802;24.020;2022-10-28T00:16:04;98598.94;;;21.76;52.50
65905;BME280;56275;49.802;24.020;2022-10-28T00:18:50;98598.94;;;21.76;52.52
65905;BME280;56275;49.802;24.020;2022-10-28T00:21:39;98589.25;;;21.75;52.28
65905;BME280;56275;49.802;24.020;2022-10-28T00:24:27;98589.25;;;21.75;52.31
65905;BME280;56275;49.802;24.020;2022-10-28T00:27:12;98589.25;;;21.75;52.20
65905;BME280;56275;49.802;24.020;2022-10-28T00:30:04;98590.13;;;21.74;52.26
65905;BME280;56275;49.802;24.020;2022-10-28T00:32:49;98595.44;;;21.74;52.44
65905;BME280;56275;49.802;24.020;2022-10-28T00:35:34;98588.34;;;21.73;52.44
65905;BME280;56275;49.802;24.020;2022-10-28T00:38:19;98583.06;;;21.73;52.32
65905;BME280;56275;49.802;24.020;2022-10-28T00:41:04;98583.94;;;21.74;52.63
65905;BME280;56275;49.802;24.020;2022-10-28T00:43:52;98579.53;;;21.73;52.57
65905;BME280;56275;49.802;24.020;2022-10-28T00:46:46;98576.88;;;21.73;52.48
65905;BME280;56275;49.802;24.020;2022-10-28T00:49:48;98574.25;;;21.73;52.33
65905;BME280;56275;49.802;24.020;2022-10-28T00:52:34;98571.59;;;21.73;52.42
65905;BME280;56275;49.802;24.020;2022-10-28T00:55:23;98569.84;;;21.72;52.55
65905;BME280;56275;49.802;24.020;2022-10-28T00:58:10;98574.25;;;21.71;52.45
65905;BME280;56275;49.802;24.020;2022-10-28T01:00:56;98564.56;;;21.72;52.27
65905;BME280;56275;49.802;24.020;2022-10-28T01:03:48;98573.38;;;21.71;52.51
65905;BME280;56275;49.802;24.020;2022-10-28T01:06:41;98562.81;;;21.71;52.44
65905;BME280;56275;49.802;24.020;2022-10-28T01:09:26;98564.56;;;21.70;52.51
65905;BME280;56275;49.802;24.020;2022-10-28T01:12:47;98564.56;;;21.69;52.40
65905;BME280;56275;49.802;24.020;2022-10-28T01:15:51;98564.56;;;21.69;52.32
65905;BME280;56275;49.802;24.020;2022-10-28T01:22:10;98566.34;;;21.68;52.27
65905;BME280;56275;49.802;24.020;2022-10-28T01:31:59;98559.25;;;21.67;52.47
65905;BME280;56275;49.802;24.020;2022-10-28T01:38:48;98560.16;;;21.69;52.23
65905;BME280;56275;49.802;24.020;2022-10-28T01:48:11;98543.41;;;21.67;52.22
65905;BME280;56275;49.802;24.020;2022-10-28T01:51:07;98543.41;;;21.67;52.12
65905;BME280;56275;49.802;24.020;2022-10-28T01:54:04;98547.81;;;21.67;52.18
65905;BME280;56275;49.802;24.020;2022-10-28T01:56:56;98535.47;;;21.66;52.19
65905;BME280;56275;49.802;24.020;2022-10-28T01:59:44;98534.59;;;21.65;52.28
65905;BME280;56275;49.802;24.020;2022-10-28T02:07:41;98532.84;;;21.64;52.12
65905;BME280;56275;49.802;24.020;2022-10-28T02:10:34;98534.63;;;21.62;52.19
65905;BME280;56275;49.802;24.020;2022-10-28T02:26:15;98525.81;;;21.62;52.24
65905;BME280;56275;49.802;24.020;2022-10-28T02:29:28;98509.97;;;21.54;52.36
65905;BME280;56275;49.802;24.020;2022-10-28T02:32:20;98528.44;;;21.62;52.14
65905;BME280;56275;49.802;24.020;2022-10-28T02:35:16;98516.09;;;21.59;52.28
65905;BME280;56275;49.802;24.020;2022-10-28T02:38:05;98523.13;;;21.60;52.26
65905;BME280;56275;49.802;24.020;2022-10-28T02:40:55;98525.78;;;21.60;52.10
65905;BME280;56275;49.802;24.020;2022-10-28T02:43:52;98520.50;;;21.60;52.08
65905;BME280;56275;49.802;24.020;2022-10-28T02:46:47;98524.91;;;21.60;52.20
65905;BME280;56275;49.802;24.020;2022-10-28T02:49:36;98524.00;;;21.61;52.14
65905;BME280;56275;49.802;24.020;2022-10-28T02:52:26;98523.16;;;21.59;51.96
65905;BME280;56275;49.802;24.020;2022-10-28T02:55:13;98516.97;;;21.58;52.24
65905;BME280;56275;49.802;24.020;2022-10-28T02:57:59;98516.97;;;21.58;52.05
65905;BME280;56275;49.802;24.020;2022-10-28T03:00:51;98514.34;;;21.57;52.12
65905;BME280;56275;49.802;24.020;2022-10-28T03:03:43;98509.06;;;21.57;52.02
65905;BME280;56275;49.802;24.020;2022-10-28T03:06:35;98517.88;;;21.57;51.99
65905;BME280;56275;49.802;24.020;2022-10-28T03:09:20;98517.00;;;21.57;52.19
65905;BME280;56275;49.802;24.020;2022-10-28T03:12:05;98517.00;;;21.57;51.92
65905;BME280;56275;49.802;24.020;2022-10-28T03:14:50;98515.25;;;21.56;52.24
65905;BME280;56275;49.802;24.020;2022-10-28T03:17:41;98513.47;;;21.56;51.96
65905;BME280;56275;49.802;24.020;2022-10-28T03:20:32;98509.94;;;21.56;51.89
65905;BME280;56275;49.802;24.020;2022-10-28T03:23:23;98509.94;;;21.56;51.87
65905;BME280;56275;49.802;24.020;2022-10-28T03:26:09;98502.91;;;21.55;52.18
65905;BME280;56275;49.802;24.020;2022-10-28T03:28:54;98506.44;;;21.55;52.11
65905;BME280;56275;49.802;24.020;2022-10-28T03:31:39;98514.34;;;21.55;52.12
65905;BME280;56275;49.802;24.020;2022-10-28T03:34:30;98505.56;;;21.55;52.08
65905;BME280;56275;49.802;24.020;2022-10-28T03:37:21;98513.47;;;21.55;51.89
65905;BME280;56275;49.802;24.020;2022-10-28T03:40:13;98509.97;;;21.54;51.94
65905;BME280;56275;49.802;24.020;2022-10-28T03:42:57;98513.47;;;21.55;52.07
65905;BME280;56275;49.802;24.020;2022-10-28T03:45:48;98517.88;;;21.52;51.89
65905;BME280;56275;49.802;24.020;2022-10-28T03:48:33;98514.34;;;21.53;52.06
65905;BME280;56275;49.802;24.020;2022-10-28T03:51:24;98509.94;;;21.52;52.06
65905;BME280;56275;49.802;24.020;2022-10-28T03:54:09;98512.59;;;21.52;51.96
65905;BME280;56275;49.802;24.020;2022-10-28T03:56:54;98511.69;;;21.52;52.07
65905;BME280;56275;49.802;24.020;2022-10-28T03:59:39;98516.13;;;21.51;51.65
65905;BME280;56275;49.802;24.020;2022-10-28T04:02:25;98513.47;;;21.51;51.86
65905;BME280;56275;49.802;24.020;2022-10-28T04:05:17;98509.06;;;21.50;51.92
65905;BME280;56275;49.802;24.020;2022-10-28T04:08:04;98514.34;;;21.50;51.85
65905;BME280;56275;49.802;24.020;2022-10-28T04:10:49;98513.47;;;21.51;51.88
65905;BME280;56275;49.802;24.020;2022-10-28T04:13:34;98520.53;;;21.51;51.96
65905;BME280;56275;49.802;24.020;2022-10-28T04:16:26;98511.72;;;21.49;51.94
65905;BME280;56275;49.802;24.020;2022-10-28T04:19:18;98509.06;;;21.50;51.84
65905;BME280;56275;49.802;24.020;2022-10-28T04:22:09;98507.31;;;21.49;51.83
65905;BME280;56275;49.802;24.020;2022-10-28T04:25:00;98502.03;;;21.49;51.92
65905;BME280;56275;49.802;24.020;2022-10-28T04:27:46;98500.25;;;21.50;51.91
65905;BME280;56275;49.802;24.020;2022-10-28T04:30:30;98495.88;;;21.49;51.96
65905;BME280;56275;49.802;24.020;2022-10-28T04:33:16;98494.97;;;21.48;51.79
65905;BME280;56275;49.802;24.020;2022-10-28T04:36:08;98494.09;;;21.49;51.81
65905;BME280;56275;49.802;24.020;2022-10-28T04:38:59;98487.94;;;21.49;51.85
65905;BME280;56275;49.802;24.020;2022-10-28T04:41:46;98488.81;;;21.49;51.95
65905;BME280;56275;49.802;24.020;2022-10-28T04:44:31;98481.75;;;21.48;51.90
65905;BME280;56275;49.802;24.020;2022-10-28T04:47:16;98478.25;;;21.48;51.85
65905;BME280;56275;49.802;24.020;2022-10-28T04:50:09;98478.25;;;21.48;51.64
65905;BME280;56275;49.802;24.020;2022-10-28T04:53:00;98482.66;;;21.47;51.82
65905;BME280;56275;49.802;24.020;2022-10-28T04:55:56;98479.97;;;21.46;51.72
65905;BME280;56275;49.802;24.020;2022-10-28T04:58:41;98478.22;;;21.45;51.79
65905;BME280;56275;49.802;24.020;2022-10-28T05:01:26;98478.22;;;21.46;51.62
65905;BME280;56275;49.802;24.020;2022-10-28T05:04:11;98479.09;;;21.45;51.63
65905;BME280;56275;49.802;24.020;2022-10-28T05:06:56;98473.81;;;21.45;51.82
65905;BME280;56275;49.802;24.020;2022-10-28T05:09:42;98475.56;;;21.46;51.65
65905;BME280;56275;49.802;24.020;2022-10-28T05:12:27;98470.28;;;21.46;51.79
65905;BME280;56275;49.802;24.020;2022-10-28T05:15:12;98470.28;;;21.46;51.93
65905;BME280;56275;49.802;24.020;2022-10-28T05:18:04;98467.66;;;21.46;51.76
65905;BME280;56275;49.802;24.020;2022-10-28T05:20:55;98477.38;;;21.47;51.82
65905;BME280;56275;49.802;24.020;2022-10-28T05:23:46;98472.06;;;21.47;51.92
65905;BME280;56275;49.802;24.020;2022-10-28T05:26:31;98465.88;;;21.47;51.79
65905;BME280;56275;49.802;24.020;2022-10-28T05:29:16;98473.81;;;21.47;51.86
65905;BME280;56275;49.802;24.020;2022-10-28T05:32:04;98475.59;;;21.48;51.86
65905;BME280;56275;49.802;24.020;2022-10-28T05:34:49;98472.94;;;21.48;52.00
65905;BME280;56275;49.802;24.020;2022-10-28T05:37:34;98468.53;;;21.48;52.06
65905;BME280;56275;49.802;24.020;2022-10-28T05:40:20;98468.53;;;21.48;51.85
65905;BME280;56275;49.802;24.020;2022-10-28T05:43:05;98473.81;;;21.50;52.17
65905;BME280;56275;49.802;24.020;2022-10-28T05:45:54;98477.34;;;21.50;51.99
65905;BME280;56275;49.802;24.020;2022-10-28T05:48:46;98472.06;;;21.50;51.90
65905;BME280;56275;49.802;24.020;2022-10-28T05:51:37;98473.81;;;21.50;52.14
65905;BME280;56275;49.802;24.020;2022-10-28T05:54:23;98480.88;;;21.51;52.13
65905;BME280;56275;49.802;24.020;2022-10-28T05:57:08;98477.34;;;21.50;51.92
65905;BME280;56275;49.802;24.020;2022-10-28T05:59:53;98474.69;;;21.50;52.10
65905;BME280;56275;49.802;24.020;2022-10-28T06:02:39;98477.34;;;21.50;51.86
65905;BME280;56275;49.802;24.020;2022-10-28T06:05:24;98478.22;;;21.51;52.16
65905;BME280;56275;49.802;24.020;2022-10-28T06:08:16;98474.69;;;21.50;52.05
65905;BME280;56275;49.802;24.020;2022-10-28T06:11:02;98482.63;;;21.50;52.14
65905;BME280;56275;49.802;24.020;2022-10-28T06:13:47;98484.38;;;21.51;52.00
65905;BME280;56275;49.802;24.020;2022-10-28T06:16:33;98480.88;;;21.51;51.97
65905;BME280;56275;49.802;24.020;2022-10-28T06:19:24;98478.22;;;21.52;52.01
65905;BME280;56275;49.802;24.020;2022-10-28T06:22:15;98476.44;;;21.53;51.90
65905;BME280;56275;49.802;24.020;2022-10-28T06:25:07;98478.22;;;21.54;51.95
65905;BME280;56275;49.802;24.020;2022-10-28T06:27:59;98480.84;;;21.56;52.24
65905;BME280;56275;49.802;24.020;2022-10-28T06:30:53;98479.97;;;21.58;52.17
65905;BME280;56275;49.802;24.020;2022-10-28T06:33:44;98466.72;;;21.63;52.27
65905;BME280;56275;49.802;24.020;2022-10-28T06:36:36;98467.59;;;21.65;52.06
65905;BME280;56275;49.802;24.020;2022-10-28T06:39:27;98464.06;;;21.64;52.13
65905;BME280;56275;49.802;24.020;2022-10-28T06:42:19;98470.25;;;21.63;51.98
65905;BME280;56275;49.802;24.020;2022-10-28T06:45:10;98465.84;;;21.62;52.19
65905;BME280;56275;49.802;24.020;2022-10-28T06:48:04;98475.53;;;21.65;52.07
65905;BME280;56275;49.802;24.020;2022-10-28T06:50:56;98470.25;;;21.68;52.17
65905;BME280;56275;49.802;24.020;2022-10-28T06:53:49;98475.50;;;21.71;52.10
65905;BME280;56275;49.802;24.020;2022-10-28T06:56:41;98478.16;;;21.75;52.40
65905;BME280;56275;49.802;24.020;2022-10-28T06:59:34;98487.84;;;21.78;52.42
65905;BME280;56275;49.802;24.020;2022-10-28T07:02:25;98490.47;;;21.79;52.29
65905;BME280;56275;49.802;24.020;2022-10-28T07:05:16;98491.34;;;21.80;52.46
65905;BME280;56275;49.802;24.020;2022-10-28T07:08:08;98485.16;;;21.81;52.33
65905;BME280;56275;49.802;24.020;2022-10-28T07:11:00;98481.63;;;21.80;52.55
65905;BME280;56275;49.802;24.020;2022-10-28T07:13:53;98481.63;;;21.80;52.45
65905;BME280;56275;49.802;24.020;2022-10-28T07:16:45;98482.53;;;21.79;52.75
65905;BME280;56275;49.802;24.020;2022-10-28T07:19:37;98485.19;;;21.83;53.31
65905;BME280;56275;49.802;24.020;2022-10-28T07:22:27;98487.78;;;21.87;53.65
65905;BME280;56275;49.802;24.020;2022-10-28T07:25:18;98487.75;;;21.93;54.21
65905;BME280;56275;49.802;24.020;2022-10-28T07:28:10;98485.09;;;21.98;54.68
65905;BME280;56275;49.802;24.020;2022-10-28T07:31:02;98493.03;;;22.02;55.22
65905;BME280;56275;49.802;24.020;2022-10-28T07:33:55;98494.78;;;22.05;54.94
65905;BME280;56275;49.802;24.020;2022-10-28T07:36:51;98496.56;;;22.09;55.31
65905;BME280;56275;49.802;24.020;2022-10-28T07:39:42;98490.38;;;22.10;55.80
65905;BME280;56275;49.802;24.020;2022-10-28T07:42:34;98491.25;;;22.11;55.52
65905;BME280;56275;49.802;24.020;2022-10-28T07:45:26;98486.84;;;22.11;55.70
65905;BME280;56275;49.802;24.020;2022-10-28T07:48:18;98481.56;;;22.11;55.97
65905;BME280;56275;49.802;24.020;2022-10-28T07:51:12;98485.97;;;22.11;56.33
65905;BME280;56275;49.802;24.020;2022-10-28T07:54:04;98489.50;;;22.11;56.27
65905;BME280;56275;49.802;24.020;2022-10-28T07:56:49;98490.38;;;22.12;56.40
65905;BME280;56275;49.802;24.020;2022-10-28T07:59:41;98487.75;;;22.10;56.49
65905;BME280;56275;49.802;24.020;2022-10-28T08:02:31;98486.84;;;22.10;56.73
65905;BME280;56275;49.802;24.020;2022-10-28T08:05:23;98496.56;;;22.09;56.40
65905;BME280;56275;49.802;24.020;2022-10-28T08:08:13;98494.75;;;22.08;56.46
65905;BME280;56275;49.802;24.020;2022-10-28T08:11:12;98493.00;;;22.07;56.58
65905;BME280;56275;49.802;24.020;2022-10-28T08:14:04;98495.63;;;22.07;56.53
65905;BME280;56275;49.802;24.020;2022-10-28T08:16:55;98496.53;;;22.04;56.53
65905;BME280;56275;49.802;24.020;2022-10-28T08:19:46;98493.91;;;22.04;56.50
65905;BME280;56275;49.802;24.020;2022-10-28T08:22:38;98495.66;;;22.05;56.51
65905;BME280;56275;49.802;24.020;2022-10-28T08:25:29;98493.03;;;22.04;56.79
65905;BME280;56275;49.802;24.020;2022-10-28T08:28:20;98493.03;;;22.02;56.59
65905;BME280;56275;49.802;24.020;2022-10-28T08:31:12;98488.59;;;22.01;56.84
65905;BME280;56275;49.802;24.020;2022-10-28T08:34:04;98488.59;;;22.01;56.66
65905;BME280;56275;49.802;24.020;2022-10-28T08:36:57;98491.25;;;22.01;57.02
65905;BME280;56275;49.802;24.020;2022-10-28T08:39:49;98486.84;;;22.00;56.77
65905;BME280;56275;49.802;24.020;2022-10-28T08:42:46;98483.31;;;22.00;56.92
65905;BME280;56275;49.802;24.020;2022-10-28T08:46:00;98483.31;;;22.00;56.60
65905;BME280;56275;49.802;24.020;2022-10-28T08:48:55;98473.63;;;22.00;56.80
65905;BME280;56275;49.802;24.020;2022-10-28T08:51:55;98478.03;;;22.00;56.51
65905;BME280;56275;49.802;24.020;2022-10-28T09:00:56;98477.16;;;21.99;57.12
65905;BME280;56275;49.802;24.020;2022-10-28T09:03:50;98474.50;;;21.99;56.98
65905;BME280;56275;49.802;24.020;2022-10-28T09:06:44;98475.41;;;21.98;56.76
65905;BME280;56275;49.802;24.020;2022-10-28T09:09:35;98471.88;;;21.99;56.88
65905;BME280;56275;49.802;24.020;2022-10-28T09:13:01;98471.00;;;21.97;56.89
65905;BME280;56275;49.802;24.020;2022-10-28T09:16:08;98471.00;;;21.97;56.74
65905;BME280;56275;49.802;24.020;2022-10-28T09:22:37;98466.59;;;21.96;56.71
65905;BME280;56275;49.802;24.020;2022-10-28T09:25:45;98464.84;;;21.95;56.62
65905;BME280;56275;49.802;24.020;2022-10-28T09:35:16;98466.63;;;21.90;56.43
65905;BME280;56275;49.802;24.020;2022-10-28T09:38:34;98471.03;;;21.91;56.48
65905;BME280;56275;49.802;24.020;2022-10-28T09:41:37;98470.16;;;21.91;56.15
65905;BME280;56275;49.802;24.020;2022-10-28T09:44:35;98464.84;;;21.92;56.21
65905;BME280;56275;49.802;24.020;2022-10-28T09:47:42;98461.31;;;21.93;56.29
65905;BME280;56275;49.802;24.020;2022-10-28T09:50:34;98457.78;;;21.93;56.30
65905;BME280;56275;49.802;24.020;2022-10-28T09:53:47;98454.25;;;21.92;56.05
65905;BME280;56275;49.802;24.020;2022-10-28T09:56:41;98453.38;;;21.93;55.96
65905;BME280;56275;49.802;24.020;2022-10-28T09:59:33;98455.13;;;21.93;56.08
65905;BME280;56275;49.802;24.020;2022-10-28T10:02:30;98450.72;;;21.93;56.07
65905;BME280;56275;49.802;24.020;2022-10-28T10:05:22;98443.69;;;21.92;55.87
65905;BME280;56275;49.802;24.020;2022-10-28T10:08:16;98443.66;;;21.94;55.82
65905;BME280;56275;49.802;24.020;2022-10-28T10:11:23;98442.81;;;21.95;55.88
65905;BME280;56275;49.802;24.020;2022-10-28T10:14:19;98446.31;;;21.97;55.90
65905;BME280;56275;49.802;24.020;2022-10-28T10:18:03;98441.00;;;21.97;55.91
65905;BME280;56275;49.802;24.020;2022-10-28T10:20:50;98432.16;;;21.99;56.16
65905;BME280;56275;49.802;24.020;2022-10-28T10:23:42;98419.81;;;22.00;55.98
65905;BME280;56275;49.802;24.020;2022-10-28T10:26:34;98421.56;;;22.01;56.02
65905;BME280;56275;49.802;24.020;2022-10-28T10:29:26;98418.94;;;22.01;56.11
65905;BME280;56275;49.802;24.020;2022-10-28T10:32:31;98418.06;;;22.02;55.96
65905;BME280;56275;49.802;24.020;2022-10-28T10:35:26;98419.81;;;22.03;56.02
65905;BME280;56275;49.802;24.020;2022-10-28T10:38:17;98421.59;;;22.02;56.14
65905;BME280;56275;49.802;24.020;2022-10-28T10:41:10;98425.97;;;22.05;55.98
65905;BME280;56275;49.802;24.020;2022-10-28T10:44:22;98420.66;;;22.06;56.29
65905;BME280;56275;49.802;24.020;2022-10-28T10:47:18;98427.75;;;22.09;56.09
65905;BME280;56275;49.802;24.020;2022-10-28T10:50:36;98424.19;;;22.12;56.14
65905;BME280;56275;49.802;24.020;2022-10-28T10:53:29;98418.00;;;22.13;55.98
65905;BME280;56275;49.802;24.020;2022-10-28T10:56:25;98413.59;;;22.13;56.28
65905;BME280;56275;49.802;24.020;2022-10-28T11:02:34;98416.25;;;22.16;56.45
65905;BME280;56275;49.802;24.020;2022-10-28T11:05:28;98403.88;;;22.18;56.32
65905;BME280;56275;49.802;24.020;2022-10-28T11:08:31;98411.78;;;22.24;56.69
65905;BME280;56275;49.802;24.020;2022-10-28T11:11:37;98403.81;;;22.26;56.21
65905;BME280;56275;49.802;24.020;2022-10-28T11:14:30;98396.75;;;22.26;55.80
65905;BME280;56275;49.802;24.020;2022-10-28T11:17:25;98395.88;;;22.26;55.99
65905;BME280;56275;49.802;24.020;2022-10-28T11:20:37;98395.88;;;22.24;56.15
65905;BME280;56275;49.802;24.020;2022-10-28T11:27:21;98387.97;;;22.23;55.92
65905;BME280;56275;49.802;24.020;2022-10-28T11:30:20;98386.16;;;22.26;56.10
65905;BME280;56275;49.802;24.020;2022-10-28T11:33:17;98378.19;;;22.28;55.78
65905;BME280;56275;49.802;24.020;2022-10-28T11:36:19;98384.38;;;22.28;55.78
65905;BME280;56275;49.802;24.020;2022-10-28T11:39:20;98367.63;;;22.28;54.97
65905;BME280;56275;49.802;24.020;2022-10-28T11:45:13;98358.94;;;22.11;52.93
65905;BME280;56275;49.802;24.020;2022-10-28T11:48:34;98370.41;;;22.05;54.35
65905;BME280;56275;49.802;24.020;2022-10-28T12:01:47;53741.03;;;-143.21;100.00
65905;BME280;56275;49.802;24.020;2022-10-28T12:05:09;53741.03;;;-143.21;100.00
65905;BME280;56275;49.802;24.020;2022-10-28T12:14:42;98343.16;;;21.86;47.86
65905;BME280;56275;49.802;24.020;2022-10-28T12:21:06;98347.56;;;21.87;47.45
65905;BME280;56275;49.802;24.020;2022-10-28T12:24:05;98348.47;;;21.86;46.98
65905;BME280;56275;49.802;24.020;2022-10-28T12:30:25;98344.09;;;21.84;46.52
65905;BME280;56275;49.802;24.020;2022-10-28T12:33:28;98339.66;;;21.84;46.33
65905;BME280;56275;49.802;24.020;2022-10-28T12:36:47;98342.31;;;21.84;45.93
65905;BME280;56275;49.802;24.020;2022-10-28T12:45:50;98332.66;;;21.82;45.90
65905;BME280;56275;49.802;24.020;2022-10-28T12:48:50;98327.34;;;21.82;45.42
65905;BME280;56275;49.802;24.020;2022-10-28T12:51:44;98325.56;;;21.80;45.33
65905;BME280;56275;49.802;24.020;2022-10-28T12:58:19;98320.31;;;21.76;45.16
65905;BME280;56275;49.802;24.020;2022-10-28T13:01:16;98317.69;;;21.73;44.95
65905;BME280;56275;49.802;24.020;2022-10-28T13:04:11;98319.47;;;21.71;45.02
65905;BME280;56275;49.802;24.020;2022-10-28T13:28:04;98322.16;;;21.68;45.30
65905;BME280;56275;49.802;24.020;2022-10-28T13:30:58;98317.72;;;21.70;45.31
65905;BME280;56275;49.802;24.020;2022-10-28T13:33:58;98320.31;;;21.73;45.66
65905;BME280;56275;49.802;24.020;2022-10-28T13:37:01;98307.97;;;21.76;45.43
65905;BME280;56275;49.802;24.020;2022-10-28T13:39:56;98315.91;;;21.78;45.63
65905;BME280;56275;49.802;24.020;2022-10-28T13:42:48;98315.88;;;21.81;45.42
65905;BME280;56275;49.802;24.020;2022-10-28T13:48:44;98314.13;;;21.82;45.67
65905;BME280;56275;49.802;24.020;2022-10-28T13:51:46;98316.78;;;21.82;45.82
65905;BME280;56275;49.802;24.020;2022-10-28T13:57:36;98311.47;;;21.83;45.69
65905;BME280;56275;49.802;24.020;2022-10-28T14:03:25;98297.31;;;21.86;45.97
65905;BME280;56275;49.802;24.020;2022-10-28T14:06:30;98299.09;;;21.88;46.28
65905;BME280;56275;49.802;24.020;2022-10-28T14:09:28;98300.84;;;21.89;46.28
65905;BME280;56275;49.802;24.020;2022-10-28T14:12:27;98301.66;;;21.94;46.43
65905;BME280;56275;49.802;24.020;2022-10-28T14:15:24;98301.69;;;21.96;46.30
65905;BME280;56275;49.802;24.020;2022-10-28T14:18:23;98293.69;;;21.99;46.37
65905;BME280;56275;49.802;24.020;2022-10-28T14:21:15;98290.13;;;22.01;46.88
65905;BME280;56275;49.802;24.020;2022-10-28T14:24:13;98291.91;;;22.04;46.67
65905;BME280;56275;49.802;24.020;2022-10-28T14:32:58;98272.50;;;22.10;46.92
65905;BME280;56275;49.802;24.020;2022-10-28T14:35:57;98276.91;;;22.11;46.99
65905;BME280;56275;49.802;24.020;2022-10-28T14:42:29;98271.56;;;22.15;47.42
65905;BME280;56275;49.802;24.020;2022-10-28T14:48:28;98261.81;;;22.19;47.69
65905;BME280;56275;49.802;24.020;2022-10-28T14:51:37;98264.44;;;22.20;47.88
65905;BME280;56275;49.802;24.020;2022-10-28T14:54:46;98259.16;;;22.20;47.67
65905;BME280;56275;49.802;24.020;2022-10-28T14:57:39;98259.16;;;22.20;47.96
65905;BME280;56275;49.802;24.020;2022-10-28T15:00:34;98255.59;;;22.21;47.98
65905;BME280;56275;49.802;24.020;2022-10-28T15:03:31;98252.09;;;22.21;48.03
65905;BME280;56275;49.802;24.020;2022-10-28T15:06:29;98257.38;;;22.21;48.26
65905;BME280;56275;49.802;24.020;2022-10-28T15:09:30;98263.56;;;22.20;48.21
65905;BME280;56275;49.802;24.020;2022-10-28T15:12:24;98266.19;;;22.21;48.13
65905;BME280;56275;49.802;24.020;2022-10-28T15:15:21;98261.81;;;22.22;48.08
65905;BME280;56275;49.802;24.020;2022-10-28T15:18:24;98264.47;;;22.22;48.19
65905;BME280;56275;49.802;24.020;2022-10-28T15:21:18;98261.81;;;22.22;48.22
65905;BME280;56275;49.802;24.020;2022-10-28T15:24:13;98256.53;;;22.22;48.51
65905;BME280;56275;49.802;24.020;2022-10-28T15:27:07;98258.28;;;22.23;48.37
65905;BME280;56275;49.802;24.020;2022-10-28T15:30:00;98258.28;;;22.23;48.61
65905;BME280;56275;49.802;24.020;2022-10-28T15:32:53;98246.78;;;22.24;48.60
65905;BME280;56275;49.802;24.020;2022-10-28T15:35:46;98250.28;;;22.26;48.80
65905;BME280;56275;49.802;24.020;2022-10-28T15:38:39;98252.94;;;22.26;48.89
